Time;durP1;ratioP1;P1;durP2;ratioP2;P2;SDS_P1;SDS_P2;PMS_P1;PMS_P2;Temp;Humidity;BMP_temperature;BMP_pressure;BME280_temperature;BME280_humidity;BME280_pressure;Samples;Min_cycle;Max_cycle;Signal;HPM_P1;HPM_P2
2023/07/06 00:00:14;;;;;;;;;;;;;;;14.03;85.58;101484.06;5093636;28;19969;-70
2023/07/06 00:02:39;;;;;;;;;;;;;;;14.02;87.79;101484.97;5094177;28;19962;-70
2023/07/06 00:05:04;;;;;;;;;;;;;;;14.00;85.60;101484.16;5074235;28;19939;-70
2023/07/06 00:07:30;;;;;;;;;;;;;;;13.93;85.53;101486.97;5092371;28;19920;-70
2023/07/06 00:09:56;;;;;;;;;;;;;;;13.92;88.01;101489.66;5093295;28;19928;-70
2023/07/06 00:12:24;;;;;;;;;;;;;;;13.91;86.25;101482.59;5075081;28;19923;-70
2023/07/06 00:14:50;;;;;;;;;;;;;;;13.87;86.43;101484.47;5093269;28;19930;-70
2023/07/06 00:17:17;;;;;;;;;;;;;;;13.84;88.86;101484.53;5093068;28;20393;-70
2023/07/06 00:19:43;;;;;;;;;;;;;;;13.81;88.76;101486.41;5075170;28;20405;-70
2023/07/06 00:22:09;;;;;;;;;;;;;;;13.79;89.18;101488.22;5093248;28;20031;-70
2023/07/06 00:24:35;;;;;;;;;;;;;;;13.76;90.51;101486.50;5075001;28;19995;-70
2023/07/06 00:27:01;;;;;;;;;;;;;;;13.77;86.97;101485.59;5093312;28;19924;-70
2023/07/06 00:29:34;;;;;;;;;;;;;;;13.74;87.53;101491.00;5093349;28;19931;-70
2023/07/06 00:32:25;;;;;;;;;;;;;;;13.71;90.10;101491.94;5093866;28;19916;-70
2023/07/06 00:34:52;;;;;;;;;;;;;;;13.68;88.35;101491.16;5058916;28;20362;-70
2023/07/06 00:37:20;;;;;;;;;;;;;;;13.66;89.08;101492.97;5075646;28;20401;-70
2023/07/06 00:39:49;;;;;;;;;;;;;;;13.64;88.70;101490.34;5058611;28;19924;-70
2023/07/06 00:42:16;;;;;;;;;;;;;;;13.62;86.95;101494.81;5057475;28;19954;-70
2023/07/06 00:44:48;;;;;;;;;;;;;;;13.55;89.52;101496.78;5041773;28;20332;-70
2023/07/06 00:47:14;;;;;;;;;;;;;;;13.53;90.38;101490.63;5074703;28;20259;-70
2023/07/06 00:49:40;;;;;;;;;;;;;;;13.48;90.07;101488.97;5073945;28;19920;-70
2023/07/06 00:52:06;;;;;;;;;;;;;;;13.46;90.66;101488.13;5087334;28;19955;-70
2023/07/06 00:54:35;;;;;;;;;;;;;;;13.45;86.20;101491.69;5074151;28;19944;-70
2023/07/06 00:57:02;;;;;;;;;;;;;;;13.44;87.16;101488.16;5074072;28;19939;-70
2023/07/06 00:59:29;;;;;;;;;;;;;;;13.45;86.44;101489.94;5057737;28;19920;-70
2023/07/06 01:01:59;;;;;;;;;;;;;;;13.40;87.82;101494.47;5092255;28;20025;-70
2023/07/06 01:04:26;;;;;;;;;;;;;;;13.36;86.05;101483.94;5073155;28;19916;-70
2023/07/06 01:06:52;;;;;;;;;;;;;;;13.32;87.67;101494.63;5091934;28;20008;-70
2023/07/06 01:09:18;;;;;;;;;;;;;;;13.27;86.77;101491.19;5073956;28;19967;-70
2023/07/06 01:11:44;;;;;;;;;;;;;;;13.28;87.78;101490.31;5092098;28;20267;-70
2023/07/06 01:14:12;;;;;;;;;;;;;;;13.27;86.80;101488.53;5092146;28;19928;-70
2023/07/06 01:16:43;;;;;;;;;;;;;;;13.22;87.42;101490.41;5092086;28;19943;-70
2023/07/06 01:19:18;;;;;;;;;;;;;;;13.17;87.48;101492.28;5073831;28;19916;-70
2023/07/06 01:22:00;;;;;;;;;;;;;;;13.14;87.46;101489.72;5073926;28;20327;-70
2023/07/06 01:24:25;;;;;;;;;;;;;;;13.11;88.43;101487.13;5091935;28;19931;-70
2023/07/06 01:26:51;;;;;;;;;;;;;;;13.07;88.61;101496.06;5073960;28;19932;-70
2023/07/06 01:29:49;;;;;;;;;;;;;;;13.01;87.01;101494.41;5073351;28;19927;-70
2023/07/06 01:32:21;;;;;;;;;;;;;;;12.99;86.46;101493.56;5051106;28;19939;-70
2023/07/06 01:34:47;;;;;;;;;;;;;;;12.93;87.83;101496.34;5091796;28;19923;-70
2023/07/06 01:37:41;;;;;;;;;;;;;;;12.86;88.75;101495.63;5073360;28;19916;-70
2023/07/06 01:40:09;;;;;;;;;;;;;;;12.84;86.89;101492.13;5064680;28;19942;-70
2023/07/06 01:42:36;;;;;;;;;;;;;;;12.80;87.26;101486.88;5091937;28;20354;-70
2023/07/06 01:45:07;;;;;;;;;;;;;;;12.79;86.31;101487.81;5073385;28;20208;-70
2023/07/06 01:47:36;;;;;;;;;;;;;;;12.76;85.27;101486.09;5091928;28;19927;-70
2023/07/06 01:50:02;;;;;;;;;;;;;;;12.70;88.10;101489.72;5091642;28;19959;-70
2023/07/06 01:52:39;;;;;;;;;;;;;;;12.69;86.21;101485.34;5091252;28;19955;-70
2023/07/06 01:55:09;;;;;;;;;;;;;;;12.65;87.30;101502.22;5091411;28;19926;-69
2023/07/06 01:57:38;;;;;;;;;;;;;;;12.63;87.37;101505.81;5091549;28;19962;-70
2023/07/06 02:00:09;;;;;;;;;;;;;;;12.56;86.51;101493.56;5073531;28;19951;-69
2023/07/06 02:02:48;;;;;;;;;;;;;;;12.52;86.71;101495.41;5074293;28;20370;-70
2023/07/06 02:05:14;;;;;;;;;;;;;;;12.49;87.87;101500.81;5072133;28;19917;-70
2023/07/06 02:07:41;;;;;;;;;;;;;;;12.50;87.08;101509.63;5072994;28;19943;-69
2023/07/06 02:10:07;;;;;;;;;;;;;;;12.46;86.92;101498.19;5072635;28;20333;-69
2023/07/06 02:12:32;;;;;;;;;;;;;;;12.40;87.08;101501.84;5072914;28;19915;-70
2023/07/06 02:14:58;;;;;;;;;;;;;;;12.39;86.68;101504.53;5072507;28;19982;-69
2023/07/06 02:17:23;;;;;;;;;;;;;;;12.35;87.04;101511.69;5091127;28;20234;-69
2023/07/06 02:19:49;;;;;;;;;;;;;;;12.33;87.60;101494.88;5072635;28;19920;-70
2023/07/06 02:22:15;;;;;;;;;;;;;;;12.35;87.37;101502.84;5072569;28;20014;-69
2023/07/06 02:24:41;;;;;;;;;;;;;;;12.35;85.54;101502.84;5090887;28;19981;-69
2023/07/06 02:27:09;;;;;;;;;;;;;;;12.30;86.55;101497.59;5072679;28;20359;-69
2023/07/06 02:29:36;;;;;;;;;;;;;;;12.25;86.91;101497.69;5090885;28;19924;-69
2023/07/06 02:32:01;;;;;;;;;;;;;;;12.25;87.98;101488.84;5090902;28;19995;-69
2023/07/06 02:34:27;;;;;;;;;;;;;;;12.22;87.41;101489.78;5072461;28;19985;-69
2023/07/06 02:36:53;;;;;;;;;;;;;;;12.20;87.03;101488.94;5072585;28;19920;-69
2023/07/06 02:39:23;;;;;;;;;;;;;;;12.20;86.29;101488.06;5090714;28;19931;-69
2023/07/06 02:41:51;;;;;;;;;;;;;;;12.19;86.25;101483.63;5072397;28;19952;-70
2023/07/06 02:44:19;;;;;;;;;;;;;;;12.17;86.81;101493.44;5072471;28;19916;-69
2023/07/06 02:46:46;;;;;;;;;;;;;;;12.14;85.68;101491.72;5090554;28;20405;-69
2023/07/06 02:49:12;;;;;;;;;;;;;;;12.14;86.57;101488.16;5090518;28;19970;-69
2023/07/06 02:51:38;;;;;;;;;;;;;;;12.14;85.80;101499.69;5072118;28;19916;-69
2023/07/06 02:54:03;;;;;;;;;;;;;;;12.14;88.32;101491.72;5072454;28;19920;-70
2023/07/06 02:56:29;;;;;;;;;;;;;;;12.12;88.60;101496.16;5090448;28;20252;-69
2023/07/06 02:58:54;;;;;;;;;;;;;;;12.11;87.60;101502.38;5090585;28;19923;-69
2023/07/06 03:01:20;;;;;;;;;;;;;;;12.11;88.98;101497.06;5090543;28;20075;-69
2023/07/06 03:03:45;;;;;;;;;;;;;;;12.12;88.28;101493.50;5090676;28;19992;-70
2023/07/06 03:06:12;;;;;;;;;;;;;;;12.13;88.50;101497.03;5074534;28;19920;-69
2023/07/06 03:08:38;;;;;;;;;;;;;;;12.14;87.89;101490.81;5076704;28;19924;-69
2023/07/06 03:11:03;;;;;;;;;;;;;;;12.18;88.99;101496.03;5076202;28;19980;-70
2023/07/06 03:13:29;;;;;;;;;;;;;;;12.19;87.90;101496.91;5056149;28;19943;-69
2023/07/06 03:15:56;;;;;;;;;;;;;;;12.18;88.08;101496.03;5067566;28;19936;-69
2023/07/06 03:18:25;;;;;;;;;;;;;;;12.20;87.03;101504.88;5076444;28;19920;-70
2023/07/06 03:20:51;;;;;;;;;;;;;;;12.21;88.05;101508.38;5094673;28;20061;-69
2023/07/06 03:23:18;;;;;;;;;;;;;;;12.23;90.69;101506.59;5076338;28;20006;-69
2023/07/06 03:25:43;;;;;;;;;;;;;;;12.25;90.69;101510.09;5094191;28;20010;-70
2023/07/06 03:28:08;;;;;;;;;;;;;;;12.24;89.67;101511.00;5094743;28;19946;-70
2023/07/06 03:30:34;;;;;;;;;;;;;;;12.27;91.59;101513.59;5094046;28;19971;-70
2023/07/06 03:32:59;;;;;;;;;;;;;;;12.27;90.77;101517.13;5076164;28;19920;-70
2023/07/06 03:35:25;;;;;;;;;;;;;;;12.30;89.09;101520.63;5058965;28;19972;-70
2023/07/06 03:37:53;;;;;;;;;;;;;;;12.29;90.00;101517.13;5094517;28;19916;-70
2023/07/06 03:40:18;;;;;;;;;;;;;;;12.30;90.02;101518.84;5075452;28;19950;-69
2023/07/06 03:42:45;;;;;;;;;;;;;;;12.31;92.21;101525.03;5075843;28;19951;-70
2023/07/06 03:45:15;;;;;;;;;;;;;;;12.30;89.39;101525.94;5094135;28;19916;-70
2023/07/06 03:47:45;;;;;;;;;;;;;;;12.30;90.14;101521.50;5075440;28;20011;-70
2023/07/06 03:50:12;;;;;;;;;;;;;;;12.32;90.31;101527.69;5093763;28;19920;-69
2023/07/06 03:52:38;;;;;;;;;;;;;;;12.35;91.39;101532.06;5085931;28;20007;-70
2023/07/06 03:55:08;;;;;;;;;;;;;;;12.38;92.26;101535.50;5093790;28;19951;-70
2023/07/06 03:57:33;;;;;;;;;;;;;;;12.38;92.91;101530.19;5093485;28;20445;-69
2023/07/06 03:59:59;;;;;;;;;;;;;;;12.39;91.99;101539.06;5093673;28;19920;-69
2023/07/06 04:02:24;;;;;;;;;;;;;;;12.39;92.03;101537.28;5093687;28;20339;-69
2023/07/06 04:04:51;;;;;;;;;;;;;;;12.39;93.57;101539.06;5074117;28;19983;-69
2023/07/06 04:07:19;;;;;;;;;;;;;;;12.40;92.12;101541.69;5093519;28;19920;-69
2023/07/06 04:09:44;;;;;;;;;;;;;;;12.40;93.86;101544.34;5093324;28;20022;-69
2023/07/06 04:12:13;;;;;;;;;;;;;;;12.40;91.25;101544.34;5074985;28;19963;-70
2023/07/06 04:14:39;;;;;;;;;;;;;;;12.40;93.39;101541.69;5093257;28;19931;-70
2023/07/06 04:17:07;;;;;;;;;;;;;;;12.41;92.55;101538.13;5093549;28;19931;-69
2023/07/06 04:19:34;;;;;;;;;;;;;;;12.43;91.20;101544.28;5093409;28;19920;-70
2023/07/06 04:22:00;;;;;;;;;;;;;;;12.41;93.95;101548.75;5093245;28;19916;-69
2023/07/06 04:24:31;;;;;;;;;;;;;;;12.42;89.82;101546.97;5093186;28;20252;-69
2023/07/06 04:26:57;;;;;;;;;;;;;;;12.39;93.43;101545.25;5092996;28;20034;-69
2023/07/06 04:29:22;;;;;;;;;;;;;;;12.38;93.95;101551.44;5093135;28;20379;-69
2023/07/06 04:31:48;;;;;;;;;;;;;;;12.38;92.75;101542.63;5092978;28;19927;-70
2023/07/06 04:34:14;;;;;;;;;;;;;;;12.38;94.94;101550.59;5073881;28;19923;-70
2023/07/06 04:36:39;;;;;;;;;;;;;;;12.40;94.30;101549.66;5092888;28;20462;-70
2023/07/06 04:39:07;;;;;;;;;;;;;;;12.39;94.21;101545.25;5074884;28;19924;-70
2023/07/06 04:41:35;;;;;;;;;;;;;;;12.42;94.16;101563.78;5092861;28;19927;-70
2023/07/06 04:44:00;;;;;;;;;;;;;;;12.46;94.72;101559.28;5092854;28;19982;-69
2023/07/06 04:46:25;;;;;;;;;;;;;;;12.45;96.50;101568.16;5093111;28;19951;-70
2023/07/06 04:48:53;;;;;;;;;;;;;;;12.49;93.98;101572.53;5057657;28;19924;-70
2023/07/06 04:51:18;;;;;;;;;;;;;;;12.48;93.27;101568.97;5092709;28;19919;-70
2023/07/06 04:53:44;;;;;;;;;;;;;;;12.49;93.50;101564.56;5074477;28;19988;-70
2023/07/06 04:56:09;;;;;;;;;;;;;;;12.49;93.21;101567.22;5092506;28;19927;-69
2023/07/06 04:58:35;;;;;;;;;;;;;;;12.50;92.71;101565.44;5074499;28;20436;-69
2023/07/06 05:01:06;;;;;;;;;;;;;;;12.53;93.59;101573.34;5092443;28;20004;-69
2023/07/06 05:03:31;;;;;;;;;;;;;;;12.57;92.44;101569.72;5092729;28;20255;-70
2023/07/06 05:06:00;;;;;;;;;;;;;;;12.61;94.88;101574.97;5092166;28;19984;-69
2023/07/06 05:08:27;;;;;;;;;;;;;;;12.63;94.00;101569.59;5092347;28;19935;-69
2023/07/06 05:10:53;;;;;;;;;;;;;;;12.67;94.22;101571.31;5092364;28;20294;-69
2023/07/06 05:13:19;;;;;;;;;;;;;;;12.72;91.87;101576.53;5092160;28;19920;-70
2023/07/06 05:15:44;;;;;;;;;;;;;;;12.76;92.77;101571.13;5091985;28;20019;-69
2023/07/06 05:18:10;;;;;;;;;;;;;;;12.81;91.78;101579.91;5074107;28;20374;-69
2023/07/06 05:20:35;;;;;;;;;;;;;;;12.88;92.66;101572.66;5073359;28;19943;-69
2023/07/06 05:23:03;;;;;;;;;;;;;;;12.97;94.61;101579.59;5074076;28;20019;-69
2023/07/06 05:25:28;;;;;;;;;;;;;;;13.04;93.84;101579.44;5073219;28;19932;-69
2023/07/06 05:27:54;;;;;;;;;;;;;;;13.09;94.94;101574.03;5073056;28;19997;-70
2023/07/06 05:30:19;;;;;;;;;;;;;;;13.14;95.21;101582.78;5075093;28;19931;-69
2023/07/06 05:32:44;;;;;;;;;;;;;;;13.16;96.08;101580.09;5109841;28;20220;-69
2023/07/06 05:35:10;;;;;;;;;;;;;;;13.25;93.59;101578.13;5092549;28;19965;-69
2023/07/06 05:37:35;;;;;;;;;;;;;;;13.32;92.07;101579.75;5105088;28;19942;-69
2023/07/06 05:40:04;;;;;;;;;;;;;;;13.34;96.26;101583.25;5091804;28;19916;-69
2023/07/06 05:42:29;;;;;;;;;;;;;;;13.38;95.10;101581.44;5091588;28;19920;-69
2023/07/06 05:44:54;;;;;;;;;;;;;;;13.36;95.39;101580.59;5091743;28;19916;-70
2023/07/06 05:47:20;;;;;;;;;;;;;;;13.38;96.44;101581.44;5091554;28;19932;-70
2023/07/06 05:49:45;;;;;;;;;;;;;;;13.43;96.26;101586.66;5091608;28;19920;-70
2023/07/06 05:52:12;;;;;;;;;;;;;;;13.44;95.34;101581.28;5078420;28;20402;-70
2023/07/06 05:54:39;;;;;;;;;;;;;;;13.49;96.38;101589.16;5089631;28;20000;-70
2023/07/06 05:57:05;;;;;;;;;;;;;;;13.52;94.70;101581.97;5105492;28;19927;-70
2023/07/06 05:59:30;;;;;;;;;;;;;;;13.57;96.45;101592.53;5103777;28;19916;-70
2023/07/06 06:01:59;;;;;;;;;;;;;;;13.61;96.27;101585.38;5094217;28;20275;-70
2023/07/06 06:04:27;;;;;;;;;;;;;;;13.67;96.79;101590.53;5087428;28;20315;-70
2023/07/06 06:06:54;;;;;;;;;;;;;;;13.73;96.39;101585.94;5068983;28;19916;-70
2023/07/06 06:09:21;;;;;;;;;;;;;;;13.81;96.66;101598.22;5090372;28;19924;-70
2023/07/06 06:11:50;;;;;;;;;;;;;;;13.83;96.69;101597.25;5090447;28;20394;-70
2023/07/06 06:14:16;;;;;;;;;;;;;;;13.92;96.98;101601.47;5063208;28;19925;-70
2023/07/06 06:16:42;;;;;;;;;;;;;;;14.02;95.06;101603.03;5070451;28;20050;-70
2023/07/06 06:19:07;;;;;;;;;;;;;;;14.01;95.71;101606.59;5070828;28;20058;-70
2023/07/06 06:21:33;;;;;;;;;;;;;;;14.04;95.19;101603.84;5078749;28;19970;-70
2023/07/06 06:23:59;;;;;;;;;;;;;;;14.15;96.16;101616.94;5082381;28;19920;-70
2023/07/06 06:26:24;;;;;;;;;;;;;;;14.23;95.43;101612.28;5068957;28;20251;-71
2023/07/06 06:28:50;;;;;;;;;;;;;;;14.25;95.13;101612.25;5052098;28;19925;-70
2023/07/06 06:31:15;;;;;;;;;;;;;;;14.28;93.73;101615.72;5069998;28;20005;-70
2023/07/06 06:33:41;;;;;;;;;;;;;;;14.34;94.13;101625.31;5069495;28;19916;-70
2023/07/06 06:36:09;;;;;;;;;;;;;;;14.41;94.83;101626.94;5070274;28;19924;-70
2023/07/06 06:38:34;;;;;;;;;;;;;;;14.55;95.67;101627.50;5071879;28;19920;-71
2023/07/06 06:41:03;;;;;;;;;;;;;;;14.69;95.08;101628.91;5071232;28;20391;-72
2023/07/06 06:43:29;;;;;;;;;;;;;;;14.81;95.08;101632.16;5070399;28;19916;-72
2023/07/06 06:45:54;;;;;;;;;;;;;;;14.88;93.72;101623.97;5068732;28;20066;-73
2023/07/06 06:48:20;;;;;;;;;;;;;;;14.92;93.35;101631.84;5075923;28;19962;-73
2023/07/06 06:50:45;;;;;;;;;;;;;;;14.97;92.99;101634.41;5068616;28;20344;-73
2023/07/06 06:53:11;;;;;;;;;;;;;;;15.05;92.96;101638.59;5080018;28;19931;-73
2023/07/06 06:55:37;;;;;;;;;;;;;;;15.10;92.56;101640.25;5076819;28;19940;-73
2023/07/06 06:58:03;;;;;;;;;;;;;;;15.15;92.19;101646.34;5074982;28;20019;-73
2023/07/06 07:00:29;;;;;;;;;;;;;;;15.21;91.74;101647.03;5070270;28;20544;-74
2023/07/06 07:02:54;;;;;;;;;;;;;;;15.26;92.06;101646.91;5070618;28;20015;-74
2023/07/06 07:05:20;;;;;;;;;;;;;;;15.34;90.97;101650.25;5068466;28;19944;-73
2023/07/06 07:07:45;;;;;;;;;;;;;;;15.33;91.21;101642.25;5070426;28;19924;-73
2023/07/06 07:10:11;;;;;;;;;;;;;;;15.37;91.22;101650.13;5070496;28;19921;-73
2023/07/06 07:12:40;;;;;;;;;;;;;;;15.41;90.71;101649.16;5070355;28;20396;-73
2023/07/06 07:15:09;;;;;;;;;;;;;;;15.46;89.98;101660.56;5084900;28;20028;-73
2023/07/06 07:17:35;;;;;;;;;;;;;;;15.49;90.82;101662.25;5090256;28;20371;-74
2023/07/06 07:20:01;;;;;;;;;;;;;;;15.59;90.41;101662.88;5065896;28;19923;-74
2023/07/06 07:22:27;;;;;;;;;;;;;;;15.69;90.81;101661.66;5090062;28;19924;-74
2023/07/06 07:24:53;;;;;;;;;;;;;;;15.83;89.81;101661.28;5090370;28;20318;-73
2023/07/06 07:27:18;;;;;;;;;;;;;;;15.90;89.36;101662.84;5071614;28;19926;-73
2023/07/06 07:29:43;;;;;;;;;;;;;;;16.00;89.55;101669.66;5090120;28;20018;-74
2023/07/06 07:32:09;;;;;;;;;;;;;;;16.07;89.29;101670.31;5090042;28;19972;-74
2023/07/06 07:34:34;;;;;;;;;;;;;;;16.20;89.02;101673.50;5050935;28;19928;-74
2023/07/06 07:37:03;;;;;;;;;;;;;;;16.28;88.95;101674.13;5067835;28;20295;-71
2023/07/06 07:39:29;;;;;;;;;;;;;;;16.39;87.89;101676.44;5072172;28;19977;-73
2023/07/06 07:41:54;;;;;;;;;;;;;;;16.44;86.84;101670.00;5090177;28;20352;-74
2023/07/06 07:44:21;;;;;;;;;;;;;;;16.52;87.32;101681.34;5090241;28;19924;-74
2023/07/06 07:46:46;;;;;;;;;;;;;;;16.65;87.50;101681.78;5090154;28;19946;-74
2023/07/06 07:49:12;;;;;;;;;;;;;;;16.72;86.03;101685.16;5071725;28;19976;-74
2023/07/06 07:51:38;;;;;;;;;;;;;;;16.69;85.43;101683.44;5092156;28;19920;-74
2023/07/06 07:54:03;;;;;;;;;;;;;;;16.70;85.33;101682.50;5075841;28;20354;-73
2023/07/06 07:56:28;;;;;;;;;;;;;;;16.81;85.55;101687.50;5075485;28;20007;-74
2023/07/06 07:58:54;;;;;;;;;;;;;;;16.87;83.15;101686.47;5075514;28;19960;-74
2023/07/06 08:01:20;;;;;;;;;;;;;;;16.83;82.86;101692.81;5093778;28;19920;-74
2023/07/06 08:03:46;;;;;;;;;;;;;;;16.76;82.88;101695.69;5093764;28;19927;-74
2023/07/06 08:06:16;;;;;;;;;;;;;;;16.70;83.93;101698.56;5093369;28;20377;-74
2023/07/06 08:08:43;;;;;;;;;;;;;;;16.80;83.92;101696.47;5093540;28;19916;-74
2023/07/06 08:11:10;;;;;;;;;;;;;;;17.02;83.72;101691.25;5093937;28;19945;-74
2023/07/06 08:13:36;;;;;;;;;;;;;;;17.12;82.01;101691.81;5093401;28;20374;-74
2023/07/06 08:16:01;;;;;;;;;;;;;;;17.07;81.58;101689.28;5081651;28;19920;-75
2023/07/06 08:18:28;;;;;;;;;;;;;;;17.12;83.13;101681.97;5093163;28;19920;-75
2023/07/06 08:20:54;;;;;;;;;;;;;;;17.40;82.97;101684.50;5092715;28;19920;-74
2023/07/06 08:23:20;;;;;;;;;;;;;;;17.74;82.97;101693.09;5093414;28;19976;-74
2023/07/06 08:25:46;;;;;;;;;;;;;;;18.01;80.72;101688.50;5092961;28;19920;-74
2023/07/06 08:28:12;;;;;;;;;;;;;;;18.13;80.43;101696.06;5089867;28;19923;-70
2023/07/06 08:30:42;;;;;;;;;;;;;;;18.13;79.45;101695.19;5057883;28;20247;-74
2023/07/06 08:33:09;;;;;;;;;;;;;;;18.22;80.26;101700.16;5091034;28;20383;-74
2023/07/06 08:35:39;;;;;;;;;;;;;;;18.34;79.42;101688.94;5092287;28;19992;-74
2023/07/06 08:38:04;;;;;;;;;;;;;;;18.48;78.21;101697.31;5093132;28;19923;-74
2023/07/06 08:40:30;;;;;;;;;;;;;;;18.55;78.28;101695.25;5074426;28;19920;-74
2023/07/06 08:42:56;;;;;;;;;;;;;;;18.58;78.56;101694.25;5043446;28;19920;-74
2023/07/06 08:45:23;;;;;;;;;;;;;;;18.65;75.89;101699.28;5066665;28;19916;-74
2023/07/06 08:47:50;;;;;;;;;;;;;;;18.74;76.53;101703.38;5092873;28;19916;-74
2023/07/06 08:50:20;;;;;;;;;;;;;;;18.67;76.60;101701.94;5092620;28;19939;-74
2023/07/06 08:52:46;;;;;;;;;;;;;;;18.72;74.36;101705.28;5092554;28;19924;-74
2023/07/06 08:55:13;;;;;;;;;;;;;;;18.78;75.91;101710.41;5092785;28;19916;-75
2023/07/06 08:57:38;;;;;;;;;;;;;;;18.87;75.49;101707.34;5092757;28;20011;-74
2023/07/06 09:00:14;;;;;;;;;;;;;;;18.93;73.27;101705.34;5092773;28;20056;-74
2023/07/06 09:02:40;;;;;;;;;;;;;;;18.98;72.87;101706.00;5073194;28;20015;-74
2023/07/06 09:05:11;;;;;;;;;;;;;;;18.99;73.73;101705.94;5092443;28;20033;-75
2023/07/06 09:07:38;;;;;;;;;;;;;;;19.20;72.67;101709.50;5092361;28;19950;-75
2023/07/06 09:10:30;;;;;;;;;;;;;;;19.43;71.77;101719.19;5074156;28;19920;-75
2023/07/06 09:13:11;;;;;;;;;;;;;;;19.53;69.09;101712.50;5071279;28;20264;-75
2023/07/06 09:15:37;;;;;;;;;;;;;;;19.63;71.71;101714.75;5092006;28;19985;-75
2023/07/06 09:18:03;;;;;;;;;;;;;;;19.82;69.03;101715.66;5092597;28;19920;-75
2023/07/06 09:20:28;;;;;;;;;;;;;;;19.82;68.73;101721.03;5091966;28;19920;-75
2023/07/06 09:22:54;;;;;;;;;;;;;;;19.84;68.80;101712.91;5057622;28;19920;-74
2023/07/06 09:25:21;;;;;;;;;;;;;;;19.76;70.46;101710.59;5092093;28;20028;-74
2023/07/06 09:27:47;;;;;;;;;;;;;;;19.72;71.34;101722.41;5092231;28;19966;-74
2023/07/06 09:30:25;;;;;;;;;;;;;;;19.62;68.40;101721.94;5073662;28;20255;-74
2023/07/06 09:32:54;;;;;;;;;;;;;;;19.51;70.93;101713.47;5060608;28;20031;-74
2023/07/06 09:35:22;;;;;;;;;;;;;;;19.47;70.47;101712.75;5072731;28;19924;-74
2023/07/06 09:37:48;;;;;;;;;;;;;;;19.40;67.79;101716.66;5091856;28;19952;-74
2023/07/06 09:40:14;;;;;;;;;;;;;;;19.31;68.84;101715.28;5091579;28;20038;-75
2023/07/06 09:42:39;;;;;;;;;;;;;;;19.21;69.16;101718.41;5072587;28;20338;-74
2023/07/06 09:45:25;;;;;;;;;;;;;;;19.21;71.36;101727.34;5092224;28;20023;-74
2023/07/06 09:47:55;;;;;;;;;;;;;;;19.06;70.39;101726.19;5091693;28;19947;-72
2023/07/06 09:50:22;;;;;;;;;;;;;;;19.01;70.63;101722.84;5090755;28;20357;-73
2023/07/06 09:52:48;;;;;;;;;;;;;;;18.97;70.08;101731.13;5056254;28;20011;-73
2023/07/06 09:55:19;;;;;;;;;;;;;;;18.88;69.14;101729.69;5090947;28;19959;-72
2023/07/06 09:57:48;;;;;;;;;;;;;;;18.87;69.79;101725.25;5091225;28;19916;-72
2023/07/06 10:00:17;;;;;;;;;;;;;;;19.07;70.27;101722.59;5091073;28;19961;-73
2023/07/06 10:02:43;;;;;;;;;;;;;;;19.26;70.30;101719.97;5072934;28;20300;-73
2023/07/06 10:05:27;;;;;;;;;;;;;;;19.33;68.43;101717.88;5091010;28;19967;-72
2023/07/06 10:08:05;;;;;;;;;;;;;;;19.32;68.62;101718.81;5090964;28;19973;-72
2023/07/06 10:10:32;;;;;;;;;;;;;;;19.46;69.38;101719.09;5090922;28;19928;-73
2023/07/06 10:13:05;;;;;;;;;;;;;;;19.68;66.24;101713.63;5072656;28;20331;-73
2023/07/06 10:15:43;;;;;;;;;;;;;;;20.00;66.06;101721.97;5090652;28;20327;-73
2023/07/06 10:18:08;;;;;;;;;;;;;;;20.31;65.43;101717.84;5072008;28;20396;-74
2023/07/06 10:20:37;;;;;;;;;;;;;;;20.53;62.59;101721.22;5090395;28;19920;-73
2023/07/06 10:23:09;;;;;;;;;;;;;;;20.50;65.10;101712.41;5091033;28;20044;-74
2023/07/06 10:26:04;;;;;;;;;;;;;;;20.61;60.13;101708.28;5090615;28;19923;-74
2023/07/06 10:28:33;;;;;;;;;;;;;;;20.60;63.48;101705.69;5080982;28;19992;-71
2023/07/06 10:31:03;;;;;;;;;;;;;;;20.59;63.30;101706.59;5089749;28;19981;-74
2023/07/06 10:33:37;;;;;;;;;;;;;;;20.61;61.96;101710.97;5088919;28;20351;-74
2023/07/06 10:36:02;;;;;;;;;;;;;;;20.78;59.67;101706.56;5041683;28;19916;-74
2023/07/06 10:38:28;;;;;;;;;;;;;;;20.92;62.77;101700.44;5072464;28;19938;-74
2023/07/06 10:41:11;;;;;;;;;;;;;;;21.09;60.39;101703.13;5090416;28;19978;-74
2023/07/06 10:43:42;;;;;;;;;;;;;;;21.26;58.43;101703.16;5090725;28;19915;-74
2023/07/06 10:46:26;;;;;;;;;;;;;;;21.55;59.36;101714.19;5060492;28;21179;-74
2023/07/06 10:48:57;;;;;;;;;;;;;;;21.63;54.16;101705.69;5090341;28;20354;-74
2023/07/06 10:51:26;;;;;;;;;;;;;;;21.59;58.04;101706.84;5090159;28;20001;-73
2023/07/06 10:53:51;;;;;;;;;;;;;;;21.59;58.80;101710.41;5072322;28;19962;-74
2023/07/06 10:56:19;;;;;;;;;;;;;;;21.79;57.60;101701.22;5090108;28;19916;-74
2023/07/06 10:58:48;;;;;;;;;;;;;;;22.09;54.43;101705.84;5088796;28;20355;-74
2023/07/06 11:01:16;;;;;;;;;;;;;;;22.09;55.76;101713.94;5082902;28;19928;-76
2023/07/06 11:03:42;;;;;;;;;;;;;;;22.36;52.28;101706.13;5063319;28;19919;-77
2023/07/06 11:06:13;;;;;;;;;;;;;;;22.35;51.36;101717.88;5054758;28;19916;-74
2023/07/06 11:08:57;;;;;;;;;;;;;;;22.19;52.54;101720.56;5090130;28;19919;-74
2023/07/06 11:11:26;;;;;;;;;;;;;;;22.02;50.67;101731.41;5090065;28;19916;-75
2023/07/06 11:13:52;;;;;;;;;;;;;;;21.83;52.66;101723.47;5089945;28;20010;-73
2023/07/06 11:16:21;;;;;;;;;;;;;;;21.68;52.87;101733.28;5067152;28;20019;-74
2023/07/06 11:18:51;;;;;;;;;;;;;;;21.80;54.49;101735.28;5087140;28;20223;-79
2023/07/06 11:21:16;;;;;;;;;;;;;;;22.21;53.04;101726.78;5090106;28;20105;-80
2023/07/06 11:23:45;;;;;;;;;;;;;;;22.50;53.11;101729.59;5090208;28;20422;-80
2023/07/06 11:26:26;;;;;;;;;;;;;;;22.62;50.18;101737.00;5072987;28;19923;-80
2023/07/06 11:28:53;;;;;;;;;;;;;;;22.59;49.95;101739.88;5075577;28;20281;-79
2023/07/06 11:31:31;;;;;;;;;;;;;;;22.32;50.61;101740.50;5075319;28;19916;-79
2023/07/06 11:34:15;;;;;;;;;;;;;;;22.30;51.70;101739.75;5074552;28;19937;-79
2023/07/06 11:36:50;;;;;;;;;;;;;;;22.26;52.39;101743.56;5088171;28;20039;-79
2023/07/06 11:39:28;;;;;;;;;;;;;;;22.30;50.61;101736.16;5093566;28;19967;-79
2023/07/06 11:41:57;;;;;;;;;;;;;;;22.35;51.09;101739.44;5055634;28;20366;-79
2023/07/06 11:44:45;;;;;;;;;;;;;;;22.44;50.62;101744.34;5087021;28;19916;-79
2023/07/06 11:47:29;;;;;;;;;;;;;;;22.43;49.04;101744.44;5082547;28;19920;-80
2023/07/06 11:49:59;;;;;;;;;;;;;;;22.16;49.83;101763.03;5093029;28;20383;-79
2023/07/06 11:52:30;;;;;;;;;;;;;;;21.95;50.07;101752.47;5075069;28;19923;-79
2023/07/06 11:55:14;;;;;;;;;;;;;;;21.89;51.36;101750.97;5093324;28;19988;-79
2023/07/06 11:57:50;;;;;;;;;;;;;;;22.05;49.37;101747.41;5074953;28;20262;-79
2023/07/06 12:02:59;;;;;;;;;;;;;;;22.04;50.57;101748.41;5093299;28;19916;-79
2023/07/06 12:05:26;;;;;;;;;;;;;;;22.31;51.94;101737.91;5087449;28;19920;-79
2023/07/06 12:07:56;;;;;;;;;;;;;;;22.58;48.71;101735.44;5091945;28;19920;-79
2023/07/06 12:10:22;;;;;;;;;;;;;;;22.59;50.53;101736.31;5093054;28;19920;-79
2023/07/06 12:12:47;;;;;;;;;;;;;;;22.74;48.88;101732.72;5071529;28;19920;-80
2023/07/06 12:15:13;;;;;;;;;;;;;;;23.00;47.70;101750.13;5088233;28;19989;-81
2023/07/06 12:17:38;;;;;;;;;;;;;;;23.15;50.57;101746.47;5075038;28;20039;-79
2023/07/06 12:20:10;;;;;;;;;;;;;;;23.19;49.22;101747.16;5074734;28;19912;-79
2023/07/06 12:22:35;;;;;;;;;;;;;;;23.16;47.07;101750.91;5061221;28;20706;-80
2023/07/06 12:25:00;;;;;;;;;;;;;;;23.12;50.09;101749.38;5075708;28;20042;-79
2023/07/06 12:27:26;;;;;;;;;;;;;;;23.24;50.20;101744.19;5078333;28;19920;-80
2023/07/06 12:30:06;;;;;;;;;;;;;;;23.23;47.60;101746.00;5057821;28;19943;-79
2023/07/06 12:32:31;;;;;;;;;;;;;;;23.54;48.29;101749.53;5093066;28;19916;-80
2023/07/06 12:34:57;;;;;;;;;;;;;;;23.72;45.83;101736.72;5059055;28;19916;-80
2023/07/06 12:37:23;;;;;;;;;;;;;;;23.52;45.07;101748.78;5082271;28;19943;-78
2023/07/06 12:39:49;;;;;;;;;;;;;;;23.18;46.75;101746.28;5064608;28;19916;-79
2023/07/06 12:42:17;;;;;;;;;;;;;;;23.12;46.60;101751.19;5074005;28;19968;-80